Latest Weather Observations for Beaudesert AWS

IDQ60801

Issued at 7:03 am EST Wednesday 24 August 2016 (issued every 30 minutes, with the page automatically refreshed every 10 minutes)

About weather observations | Map of weather stations | Latest weather observations for QLD | Other Formats
Station Details ID: 040983 Name: BEAUDESERT DRUMLEY STREET Lat: -27.97 Lon: 152.99 Height: 47.81 m
Data from the previous 72 hours. | See also: Recent months at Beaudesert AWS
Date/Time
EST
Temp
°C
App
Temp
°C
Dew
Point
°C
Rel
Hum
%
Delta-T
°C
Wind Press
QNH
hPa
Press
MSL
hPa
Rain since
9am
mm
Dir  Spd
km/h
Gust
km/h
Spd
kts
Gust
kts
24/07:00am 15.7 16.1 15.4 98 0.2 SSW 7 13 4 7 1009.2 1009.1 7.0
24/06:30am 15.9 16.3 15.4 97 0.3 SSW 7 11 4 6 1009.1 1009.0 5.8
24/06:00am 16.1 16.6 15.6 97 0.3 SSW 7 13 4 7 1009.0 1008.9 5.4
24/05:30am 16.5 15.9 15.7 95 0.5 SW 13 19 7 10 1008.7 1008.6 5.4
24/05:00am 18.7 21.6 18.2 97 0.3 CALM 0 0 0 0 1008.5 1008.4 5.2
24/04:30am 18.9 21.1 18.4 97 0.3 NNE 4 6 2 3 1008.6 1008.5 4.4
24/04:00am 19.0 20.9 18.5 97 0.3 NNE 6 11 3 6 1008.7 1008.6 4.0
24/03:30am 19.1 20.8 18.6 97 0.3 NNE 7 13 4 7 1008.6 1008.5 3.8
24/03:00am 19.2 20.7 18.9 98 0.2 NNE 9 15 5 8 1008.8 1008.7 3.8
24/02:30am 19.3 20.4 18.8 97 0.3 N 11 19 6 10 1009.2 1009.1 3.4
24/02:00am 18.8 21.5 18.6 99 0.1 N 2 4 1 2 1009.7 1009.6 3.4
24/01:30am 18.3 21.2 18.1 99 0.1 CALM 0 0 0 0 1009.9 1009.9 3.0
24/01:00am 18.1 20.9 17.9 99 0.1 CALM 0 0 0 0 1010.3 1010.3 3.0
24/12:30am 17.9 20.5 17.6 98 0.2 CALM 0 0 0 0 1010.8 1010.8 3.0
24/12:00am 18.0 20.7 17.7 98 0.2 CALM 0 0 0 0 1011.1 1011.1 3.0
 
Date/Time
EST
Temp
°C
App
Temp
°C
Dew
Point
°C
Rel
Hum
%
Delta-T
°C
Wind Press
QNH
hPa
Press
MSL
hPa
Rain since
9am
mm
Dir  Spd
km/h
Gust
km/h
Spd
kts
Gust
kts
23/11:30pm 17.9 20.5 17.6 98 0.2 CALM 0 4 0 2 1011.5 1011.5 2.8
23/11:00pm 17.8 19.6 17.5 98 0.2 WSW 4 6 2 3 1011.7 1011.7 2.4
23/10:30pm 17.8 20.3 17.3 97 0.3 CALM 0 0 0 0 1011.9 1011.9 2.2
23/10:00pm 17.6 19.4 17.3 98 0.2 SW 4 6 2 3 1012.6 1012.6 1.8
23/09:30pm 17.4 19.4 16.9 97 0.3 SSW 2 4 1 2 1012.9 1012.9 1.6
23/09:00pm 17.4 19.1 17.1 98 0.2 SE 4 6 2 3 1013.2 1013.2 1.6
23/08:30pm 17.3 19.2 16.8 97 0.3 SE 2 4 1 2 1013.4 1013.4 1.6
23/08:00pm 17.4 19.7 16.8 96 0.4 CALM 0 0 0 0 1013.4 1013.4 1.6
23/07:30pm 17.4 19.2 16.4 94 0.6 NNE 2 4 1 2 1013.4 1013.4 1.2
23/07:00pm 17.9 20.0 16.2 90 1.0 CALM 0 4 0 2 1013.4 1013.4 1.0
23/06:30pm 19.0 21.2 17.5 91 0.9 ENE 2 7 1 4 1013.1 1013.1 1.0
23/06:00pm 18.6 20.4 17.3 92 0.8 ESE 4 6 2 3 1012.7 1012.7 1.0
23/05:30pm 18.9 20.2 17.0 89 1.2 NE 6 9 3 5 1012.5 1012.5 1.0
23/05:00pm 19.9 21.1 16.9 83 1.8 ENE 6 7 3 4 1012.3 1012.3 0.6
23/04:30pm 20.4 21.7 17.2 82 2.0 NNE 6 7 3 4 1012.0 1012.0 0.6
23/04:00pm 21.4 23.9 17.2 77 2.6 CALM 0 0 0 0 1011.7 1011.7 0.4
23/03:30pm 21.7 22.5 15.8 69 3.5 W 6 9 3 5 1011.4 1011.4 0.2
23/03:00pm 24.1 24.9 14.8 56 5.6 WNW 4 9 2 5 1011.2 1011.2 0.2
23/02:30pm 24.2 24.5 14.9 56 5.6 WNW 7 13 4 7 1011.3 1011.3 0.2
23/02:00pm 24.4 24.0 15.1 56 5.6 WNW 11 17 6 9 1011.2 1011.2 0.2
23/01:30pm 24.7 24.7 15.1 55 5.8 WNW 9 15 5 8 1011.5 1011.5 0.2
23/01:00pm 23.6 22.8 15.1 59 5.1 WSW 13 24 7 13 1012.1 1012.1 0.2
23/12:30pm 23.2 22.8 15.3 61 4.7 WNW 11 17 6 9 1012.6 1012.6 0.2
23/12:00pm 22.8 22.5 15.4 63 4.4 NW 11 22 6 12 1013.2 1013.2 0.0
23/11:30am 21.6 22.2 15.7 69 3.5 WNW 7 11 4 6 1014.0 1014.0 0.0
23/11:00am 21.3 22.5 16.0 72 3.2 WSW 4 7 2 4 1014.5 1014.5 0.0
23/10:30am 21.1 22.7 15.9 72 3.1 NNW 2 4 1 2 1014.6 1014.6 0.0
23/10:00am 20.6 21.8 16.0 75 2.8 NNW 4 7 2 4 1014.6 1014.6 0.0
23/09:30am 20.0 20.6 15.4 75 2.7 NNW 6 7 3 4 1014.8 1014.8 0.0
23/09:00am 19.2 20.1 16.2 83 1.8 WNW 6 9 3 5 1015.0 1015.0 0.2
23/08:30am 19.5 20.0 15.6 78 2.3 NW 7 11 4 6 1014.4 1014.4 0.2
23/08:00am 17.7 19.7 16.0 90 1.0 CALM 0 0 0 0 1014.0 1014.0 0.2
23/07:30am 15.4 17.0 14.8 96 0.3 CALM 0 0 0 0 1014.4 1014.4 0.2
23/07:00am 14.6 15.7 13.6 94 0.6 CALM 0 0 0 0 1014.4 1014.4 0.2
23/06:30am 15.0 16.5 14.7 98 0.2 CALM 0 0 0 0 1014.4 1014.4 0.2
23/06:00am 15.5 16.8 15.2 98 0.2 NE 2 4 1 2 1014.3 1014.3 0.2
23/05:30am 15.7 17.5 15.5 99 0.1 CALM 0 0 0 0 1014.3 1014.3 0.2
23/05:00am 15.9 17.7 15.4 97 0.3 CALM 0 0 0 0 1014.2 1014.2 0.2
23/04:30am 15.8 17.5 15.2 96 0.3 CALM 0 0 0 0 1014.1 1014.1 0.2
23/04:00am 16.1 17.8 15.3 95 0.5 CALM 0 2 0 1 1014.0 1014.0 0.2
23/03:30am 16.8 17.8 16.3 97 0.3 ENE 6 6 3 3 1014.0 1014.0 0.2
23/03:00am 16.8 18.5 16.3 97 0.3 NE 2 6 1 3 1014.2 1014.2 0.2
23/02:30am 16.4 18.3 15.8 96 0.4 CALM 0 0 0 0 1014.6 1014.6 0.2
23/02:00am 16.7 18.6 15.7 94 0.6 CALM 0 0 0 0 1014.7 1014.7 0.2
23/01:30am 16.9 18.7 15.6 92 0.8 CALM 0 0 0 0 1014.7 1014.7 0.0
23/01:00am 17.4 18.8 15.4 88 1.2 W 2 2 1 1 1015.1 1015.1 0.0
23/12:30am 18.2 19.8 16.0 87 1.3 NNW 2 4 1 2 1015.1 1015.1 0.0
23/12:00am 18.4 19.6 16.0 86 1.4 NE 4 7 2 4 1014.9 1014.9 0.0
 
Date/Time
EST
Temp
°C
App
Temp
°C
Dew
Point
°C
Rel
Hum
%
Delta-T
°C
Wind Press
QNH
hPa
Press
MSL
hPa
Rain since
9am
mm
Dir  Spd
km/h
Gust
km/h
Spd
kts
Gust
kts
22/11:30pm 18.6 19.5 16.2 86 1.4 NNE 6 9 3 5 1015.0 1015.0 0.0
22/11:00pm 18.7 19.7 16.3 86 1.4 N 6 9 3 5 1015.2 1015.2 0.0
22/10:30pm 16.7 17.7 14.3 86 1.4 NW 2 6 1 3 1015.5 1015.5 0.0
22/10:00pm 18.4 19.2 15.8 85 1.5 NNE 6 7 3 4 1015.5 1015.5 0.0
22/09:30pm 16.4 17.2 13.7 84 1.5 NE 2 4 1 2 1015.6 1015.6 0.0
22/09:00pm 17.4 18.2 14.9 85 1.4 ENE 4 6 2 3 1015.2 1015.2 0.0
22/08:30pm 16.7 17.3 14.2 85 1.4 NE 4 7 2 4 1015.1 1015.1 0.0
22/08:00pm 16.9 17.4 14.0 83 1.7 ENE 4 6 2 3 1014.8 1014.8 0.0
22/07:30pm 17.5 17.6 14.0 80 2.0 NE 6 9 3 5 1014.8 1014.8 0.0
22/07:00pm 18.4 18.7 14.5 78 2.3 NNE 6 7 3 4 1014.7 1014.7 0.0
22/06:30pm 18.8 18.9 14.5 76 2.5 NE 7 15 4 8 1014.0 1014.0 0.0
22/06:00pm 19.4 19.3 14.0 71 3.1 NNE 7 15 4 8 1014.0 1014.0 0.0
22/05:30pm 20.4 19.2 12.9 62 4.3 NNE 11 20 6 11 1014.1 1014.1 0.0
22/05:00pm 21.3 20.2 11.9 55 5.3 NNE 9 17 5 9 1014.0 1014.0 0.0
22/04:30pm 22.1 19.8 10.6 48 6.3 NNE 13 26 7 14 1013.7 1013.7 0.0
22/04:00pm 22.6 20.4 12.0 51 6.0 NNE 15 28 8 15 1013.6 1013.6 0.0
22/03:30pm 23.4 22.3 13.0 52 6.0 NNE 11 22 6 12 1013.5 1013.5 0.0
22/03:00pm 23.4 22.0 13.3 53 5.9 NNE 13 26 7 14 1013.8 1013.8 0.0
22/02:30pm 22.2 21.6 14.6 62 4.5 ENE 11 20 6 11 1014.2 1014.2 0.0
22/02:00pm 23.4 23.4 14.1 56 5.5 NE 7 19 4 10 1014.3 1014.3 0.0
22/01:30pm 22.2 21.3 13.8 59 4.9 NE 11 19 6 10 1014.9 1014.9 0.0
22/01:00pm 24.1 23.1 14.5 55 5.7 NE 13 22 7 12 1015.4 1015.4 0.0
22/12:30pm 21.9 20.9 13.3 58 5.0 NE 11 19 6 10 1015.9 1015.9 0.0
22/12:00pm 22.7 21.4 12.6 53 5.8 NE 11 19 6 10 1016.3 1016.3 0.0
22/11:30am 22.7 21.5 12.9 54 5.6 NNE 11 20 6 11 1016.8 1016.8 0.0
22/11:00am 22.0 21.1 12.5 54 5.4 N 9 17 5 9 1017.4 1017.4 0.0
22/10:30am 22.5 21.5 13.3 56 5.3 NNE 11 20 6 11 1017.6 1017.6 0.0
22/10:00am 19.8 19.9 12.6 63 4.0 WNW 4 7 2 4 1018.0 1018.0 0.0
22/09:30am 18.0 18.1 12.7 71 3.0 WSW 4 6 2 3 1018.4 1018.4 0.0
22/09:00am 15.5 15.4 12.1 80 1.9 S 4 6 2 3 1018.5 1018.5 0.0
22/08:30am 13.2 13.6 11.3 88 1.0 CALM 0 4 0 2 1018.6 1018.6 0.0
22/08:00am 10.6 10.2 9.8 95 0.4 SSW 2 4 1 2 1018.7 1018.7 0.0
22/07:30am 9.1 8.8 8.5 96 0.3 CALM 0 0 0 0 1018.5 1018.5 0.0
22/07:00am 7.9 7.4 7.8 99 0.0 CALM 0 4 0 2 1018.5 1018.5 0.0
22/06:30am 7.0 5.9 6.9 99 0.0 SSE 2 4 1 2 1018.6 1018.6 0.0
22/06:00am 6.9 6.2 6.8 99 0.0 CALM 0 0 0 0 1018.4 1018.4 0.0
22/05:30am 6.6 5.8 6.5 99 0.0 CALM 0 2 0 1 1018.4 1018.4 0.0
22/05:00am 6.4 5.4 5.8 96 0.3 CALM 0 0 0 0 1018.1 1018.1 0.0
22/04:30am 7.7 6.7 7.3 97 0.2 SSE 2 4 1 2 1017.9 1017.9 0.0
22/04:00am 7.7 7.0 7.1 96 0.3 CALM 0 2 0 1 1017.9 1017.9 0.0
22/03:30am 8.7 7.9 8.1 96 0.3 E 2 4 1 2 1017.7 1017.7 0.0
22/03:00am 8.6 7.8 8.0 96 0.3 SSE 2 4 1 2 1017.9 1017.9 0.0
22/02:30am 8.8 8.0 8.0 95 0.4 SSE 2 4 1 2 1018.0 1018.0 0.0
22/02:00am 9.0 8.6 8.1 94 0.4 CALM 0 0 0 0 1018.1 1018.1 0.0
22/01:30am 9.3 8.6 8.5 95 0.4 SE 2 4 1 2 1018.5 1018.5 0.0
22/01:00am 9.5 9.2 8.6 94 0.4 CALM 0 2 0 1 1018.6 1018.6 0.0
22/12:30am 9.9 9.3 9.1 95 0.4 SE 2 4 1 2 1018.5 1018.5 0.0
22/12:00am 10.1 9.6 9.5 96 0.3 SE 2 4 1 2 1018.7 1018.7 0.0
 
Date/Time
EST
Temp
°C
App
Temp
°C
Dew
Point
°C
Rel
Hum
%
Delta-T
°C
Wind Press
QNH
hPa
Press
MSL
hPa
Rain since
9am
mm
Dir  Spd
km/h
Gust
km/h
Spd
kts
Gust
kts
21/11:30pm 10.4 9.7 10.2 99 0.1 SSE 4 6 2 3 1018.8 1018.8 0.0
21/11:00pm 9.9 9.5 9.6 98 0.1 E 2 2 1 1 1019.1 1019.1 0.0
21/10:30pm 8.9 8.5 8.1 95 0.4 CALM 0 0 0 0 1019.2 1019.2 0.0
21/10:00pm 10.0 9.8 8.9 93 0.5 CALM 0 0 0 0 1019.2 1019.2 0.0
21/09:30pm 10.3 10.1 9.1 92 0.6 CALM 0 0 0 0 1019.1 1019.1 0.0
21/09:00pm 10.8 10.7 9.4 91 0.7 CALM 0 0 0 0 1018.8 1018.8 0.0
21/08:30pm 12.0 12.1 10.1 88 1.0 CALM 0 0 0 0 1018.9 1018.9 0.0
21/08:00pm 12.3 11.9 9.9 85 1.2 S 2 4 1 2 1018.8 1018.8 0.0
21/07:30pm 13.4 13.1 10.0 80 1.8 ESE 2 4 1 2 1018.4 1018.4 0.0
21/07:00pm 15.0 15.1 11.4 79 1.9 E 2 6 1 3 1018.3 1018.3 0.0
21/06:30pm 15.3 15.1 10.5 73 2.5 NE 2 4 1 2 1018.1 1018.1 0.0
21/06:00pm 16.3 15.7 10.4 68 3.1 NNE 4 7 2 4 1017.8 1017.8 0.0
21/05:30pm 17.4 16.2 10.3 63 3.8 ENE 7 13 4 7 1017.5 1017.5 0.0
21/05:00pm 18.8 17.1 9.8 56 4.8 NE 9 20 5 11 1017.3 1017.3 0.0
21/04:30pm 19.8 17.2 9.4 51 5.5 NE 13 22 7 12 1016.9 1016.9 0.0
21/04:00pm 21.2 18.7 8.1 43 6.8 NNE 11 19 6 10 1016.6 1016.6 0.0
21/03:30pm 22.1 19.7 5.1 33 8.4 N 7 17 4 9 1016.4 1016.4 0.0
21/03:00pm 22.3 20.0 4.8 32 8.6 NNW 6 17 3 9 1016.5 1016.5 0.0
21/02:30pm 22.2 19.6 4.3 31 8.8 NNW 7 11 4 6 1016.8 1016.8 0.0
21/02:00pm 21.4 18.8 4.0 32 8.4 NE 7 17 4 9 1017.3 1017.3 0.0
21/01:30pm 22.0 19.7 5.8 35 8.1 N 7 13 4 7 1017.5 1017.5 0.0
21/01:00pm 21.2 18.7 4.7 34 8.1 NNW 7 13 4 7 1017.9 1017.9 0.0
21/12:30pm 20.6 18.7 5.0 36 7.7 N 4 9 2 5 1018.3 1018.3 0.0
21/12:00pm 20.7 18.4 4.7 35 7.8 N 6 13 3 7 1018.9 1018.9 0.0
21/11:30am 19.1 17.3 5.2 40 6.8 NNE 4 7 2 4 1019.6 1019.6 0.0
21/11:00am 19.1 16.9 5.2 40 6.8 NW 6 11 3 6 1020.0 1020.0 0.0
21/10:30am 18.0 16.3 4.2 40 6.5 W 2 6 1 3 1020.2 1020.2 0.0
21/10:00am 17.2 16.2 7.3 52 4.9 WSW 2 7 1 4 1020.5 1020.5 0.0
21/09:30am 14.9 13.6 6.2 56 4.2 WSW 2 6 1 3 1020.6 1020.6 0.0
21/09:00am 14.2 13.0 6.3 59 3.8 W 2 4 1 2 1020.6 1020.6 0.6
21/08:30am 11.8 10.4 5.7 66 2.8 S 2 4 1 2 1020.6 1020.6 0.6
21/08:00am 8.9 7.7 4.5 74 1.9 CALM 0 0 0 0 1020.8 1020.8 0.6
21/07:30am 7.4 5.8 2.7 72 2.0 CALM 0 0 0 0 1020.6 1020.6 0.6

Other Formats:

Comma delimited format used in spreadsheet applications
http://www.bom.gov.au/fwo/IDQ60801/IDQ60801.95575.axf

JavaScript Object Notation format (JSON) in row-major order
http://www.bom.gov.au/fwo/IDQ60801/IDQ60801.95575.json